sensor_id;sensor_type;location;lat;lon;timestamp;temperature;humidity
22112;DHT22;11222;50.872;4.312;2022-08-05T00:01:02;21.50;99.90
22112;DHT22;11222;50.872;4.312;2022-08-05T00:03:35;21.50;99.90
22112;DHT22;11222;50.872;4.312;2022-08-05T00:06:00;21.50;99.90
22112;DHT22;11222;50.872;4.312;2022-08-05T00:08:26;21.50;99.90
22112;DHT22;11222;50.872;4.312;2022-08-05T00:10:52;21.50;99.90
22112;DHT22;11222;50.872;4.312;2022-08-05T00:13:17;21.50;99.90
22112;DHT22;11222;50.872;4.312;2022-08-05T00:15:43;21.50;99.90
22112;DHT22;11222;50.872;4.312;2022-08-05T00:18:08;21.50;99.90
22112;DHT22;11222;50.872;4.312;2022-08-05T00:20:34;21.60;99.90
22112;DHT22;11222;50.872;4.312;2022-08-05T00:23:00;21.60;99.90
22112;DHT22;11222;50.872;4.312;2022-08-05T00:25:25;21.70;99.90
22112;DHT22;11222;50.872;4.312;2022-08-05T00:27:51;21.70;99.90
22112;DHT22;11222;50.872;4.312;2022-08-05T00:30:17;21.70;99.90
22112;DHT22;11222;50.872;4.312;2022-08-05T00:32:42;21.70;99.90
22112;DHT22;11222;50.872;4.312;2022-08-05T00:35:08;21.70;99.90
22112;DHT22;11222;50.872;4.312;2022-08-05T00:37:34;21.70;99.90
22112;DHT22;11222;50.872;4.312;2022-08-05T00:39:59;21.60;99.90
22112;DHT22;11222;50.872;4.312;2022-08-05T00:42:34;21.60;99.90
22112;DHT22;11222;50.872;4.312;2022-08-05T00:45:00;21.60;99.90
22112;DHT22;11222;50.872;4.312;2022-08-05T00:47:26;21.70;99.90
22112;DHT22;11222;50.872;4.312;2022-08-05T00:49:52;21.70;99.90
22112;DHT22;11222;50.872;4.312;2022-08-05T00:52:19;21.50;99.90
22112;DHT22;11222;50.872;4.312;2022-08-05T00:54:44;21.40;99.90
22112;DHT22;11222;50.872;4.312;2022-08-05T00:57:10;21.30;99.90
22112;DHT22;11222;50.872;4.312;2022-08-05T00:59:36;21.20;99.90
22112;DHT22;11222;50.872;4.312;2022-08-05T01:02:02;21.00;99.90
22112;DHT22;11222;50.872;4.312;2022-08-05T01:04:28;20.90;99.90
22112;DHT22;11222;50.872;4.312;2022-08-05T01:06:53;20.80;99.90
22112;DHT22;11222;50.872;4.312;2022-08-05T01:09:19;20.50;99.90
22112;DHT22;11222;50.872;4.312;2022-08-05T01:11:48;20.40;99.90
22112;DHT22;11222;50.872;4.312;2022-08-05T01:14:23;20.40;99.90
22112;DHT22;11222;50.872;4.312;2022-08-05T01:17:02;20.40;99.90
22112;DHT22;11222;50.872;4.312;2022-08-05T01:19:51;20.30;99.90
22112;DHT22;11222;50.872;4.312;2022-08-05T01:22:22;20.40;99.90
22112;DHT22;11222;50.872;4.312;2022-08-05T01:25:02;20.30;99.90
22112;DHT22;11222;50.872;4.312;2022-08-05T01:27:59;20.40;99.90
22112;DHT22;11222;50.872;4.312;2022-08-05T01:30:33;20.60;99.90
22112;DHT22;11222;50.872;4.312;2022-08-05T01:33:04;20.70;99.90
22112;DHT22;11222;50.872;4.312;2022-08-05T01:35:33;20.80;99.90
22112;DHT22;11222;50.872;4.312;2022-08-05T01:38:02;20.80;99.90
22112;DHT22;11222;50.872;4.312;2022-08-05T01:40:29;20.80;99.90
22112;DHT22;11222;50.872;4.312;2022-08-05T01:42:58;20.80;99.90
22112;DHT22;11222;50.872;4.312;2022-08-05T01:45:27;20.90;99.90
22112;DHT22;11222;50.872;4.312;2022-08-05T01:47:54;20.90;99.90
22112;DHT22;11222;50.872;4.312;2022-08-05T01:50:25;20.90;99.90
22112;DHT22;11222;50.872;4.312;2022-08-05T01:52:52;20.90;99.90
22112;DHT22;11222;50.872;4.312;2022-08-05T01:55:20;20.80;99.90
22112;DHT22;11222;50.872;4.312;2022-08-05T01:57:48;20.70;99.90
22112;DHT22;11222;50.872;4.312;2022-08-05T02:00:15;20.80;99.90
22112;DHT22;11222;50.872;4.312;2022-08-05T02:02:59;20.90;99.90
22112;DHT22;11222;50.872;4.312;2022-08-05T02:05:30;20.80;99.90
22112;DHT22;11222;50.872;4.312;2022-08-05T02:07:57;20.70;99.90
22112;DHT22;11222;50.872;4.312;2022-08-05T02:10:25;20.70;99.90
22112;DHT22;11222;50.872;4.312;2022-08-05T02:13:00;20.80;99.90
22112;DHT22;11222;50.872;4.312;2022-08-05T02:15:26;20.90;99.90
22112;DHT22;11222;50.872;4.312;2022-08-05T02:18:03;21.00;99.90
22112;DHT22;11222;50.872;4.312;2022-08-05T02:20:58;21.00;99.90
22112;DHT22;11222;50.872;4.312;2022-08-05T02:23:30;21.10;99.90
22112;DHT22;11222;50.872;4.312;2022-08-05T02:25:59;21.10;99.90
22112;DHT22;11222;50.872;4.312;2022-08-05T02:28:30;21.10;99.90
22112;DHT22;11222;50.872;4.312;2022-08-05T02:31:13;21.00;99.90
22112;DHT22;11222;50.872;4.312;2022-08-05T02:33:45;21.00;99.90
22112;DHT22;11222;50.872;4.312;2022-08-05T02:36:14;20.90;99.90
22112;DHT22;11222;50.872;4.312;2022-08-05T02:38:44;20.80;99.90
22112;DHT22;11222;50.872;4.312;2022-08-05T02:41:10;20.80;99.90
22112;DHT22;11222;50.872;4.312;2022-08-05T02:43:38;20.70;99.90
22112;DHT22;11222;50.872;4.312;2022-08-05T02:46:05;20.60;99.90
22112;DHT22;11222;50.872;4.312;2022-08-05T02:48:31;20.60;99.90
22112;DHT22;11222;50.872;4.312;2022-08-05T02:51:01;20.50;99.90
22112;DHT22;11222;50.872;4.312;2022-08-05T02:53:29;20.60;99.90
22112;DHT22;11222;50.872;4.312;2022-08-05T02:55:56;20.50;99.90
22112;DHT22;11222;50.872;4.312;2022-08-05T02:58:22;20.50;99.90
22112;DHT22;11222;50.872;4.312;2022-08-05T03:00:49;20.60;99.90
22112;DHT22;11222;50.872;4.312;2022-08-05T03:03:19;20.50;99.90
22112;DHT22;11222;50.872;4.312;2022-08-05T03:05:49;20.50;99.90
22112;DHT22;11222;50.872;4.312;2022-08-05T03:08:15;20.40;99.90
22112;DHT22;11222;50.872;4.312;2022-08-05T03:10:43;20.40;99.90
22112;DHT22;11222;50.872;4.312;2022-08-05T03:13:16;20.40;99.90
22112;DHT22;11222;50.872;4.312;2022-08-05T03:15:43;20.40;99.90
22112;DHT22;11222;50.872;4.312;2022-08-05T03:18:09;20.40;99.90
22112;DHT22;11222;50.872;4.312;2022-08-05T03:20:34;20.40;99.90
22112;DHT22;11222;50.872;4.312;2022-08-05T03:23:00;20.40;99.90
22112;DHT22;11222;50.872;4.312;2022-08-05T03:25:26;20.40;99.90
22112;DHT22;11222;50.872;4.312;2022-08-05T03:27:54;20.30;99.90
22112;DHT22;11222;50.872;4.312;2022-08-05T03:30:22;20.30;99.90
22112;DHT22;11222;50.872;4.312;2022-08-05T03:32:48;20.30;99.90
22112;DHT22;11222;50.872;4.312;2022-08-05T03:35:14;20.30;99.90
22112;DHT22;11222;50.872;4.312;2022-08-05T03:37:40;20.40;99.90
22112;DHT22;11222;50.872;4.312;2022-08-05T03:40:07;20.40;99.90
22112;DHT22;11222;50.872;4.312;2022-08-05T03:42:34;20.40;99.90
22112;DHT22;11222;50.872;4.312;2022-08-05T03:45:00;20.40;99.90
22112;DHT22;11222;50.872;4.312;2022-08-05T03:47:26;20.40;99.90
22112;DHT22;11222;50.872;4.312;2022-08-05T03:49:51;20.40;99.90
22112;DHT22;11222;50.872;4.312;2022-08-05T03:52:23;20.30;99.90
22112;DHT22;11222;50.872;4.312;2022-08-05T03:54:59;20.30;99.90
22112;DHT22;11222;50.872;4.312;2022-08-05T03:57:29;20.20;99.90
22112;DHT22;11222;50.872;4.312;2022-08-05T04:00:11;20.20;99.90
22112;DHT22;11222;50.872;4.312;2022-08-05T04:02:40;20.20;99.90
22112;DHT22;11222;50.872;4.312;2022-08-05T04:05:11;20.20;99.90
22112;DHT22;11222;50.872;4.312;2022-08-05T04:07:39;20.30;99.90
22112;DHT22;11222;50.872;4.312;2022-08-05T04:10:05;20.20;99.90
22112;DHT22;11222;50.872;4.312;2022-08-05T04:12:32;20.20;99.90
22112;DHT22;11222;50.872;4.312;2022-08-05T04:14:58;20.20;99.90
22112;DHT22;11222;50.872;4.312;2022-08-05T04:17:24;20.20;99.90
22112;DHT22;11222;50.872;4.312;2022-08-05T04:19:50;20.10;99.90
22112;DHT22;11222;50.872;4.312;2022-08-05T04:22:15;20.10;99.90
22112;DHT22;11222;50.872;4.312;2022-08-05T04:24:43;20.10;99.90
22112;DHT22;11222;50.872;4.312;2022-08-05T04:27:10;20.10;99.90
22112;DHT22;11222;50.872;4.312;2022-08-05T04:29:36;20.10;99.90
22112;DHT22;11222;50.872;4.312;2022-08-05T04:32:02;20.00;99.90
22112;DHT22;11222;50.872;4.312;2022-08-05T04:34:28;19.90;99.90
22112;DHT22;11222;50.872;4.312;2022-08-05T04:36:54;19.90;99.90
22112;DHT22;11222;50.872;4.312;2022-08-05T04:39:20;19.90;99.90
22112;DHT22;11222;50.872;4.312;2022-08-05T04:41:46;19.90;99.90
22112;DHT22;11222;50.872;4.312;2022-08-05T04:44:12;20.00;99.90
22112;DHT22;11222;50.872;4.312;2022-08-05T04:46:38;20.00;99.90
22112;DHT22;11222;50.872;4.312;2022-08-05T04:49:07;20.00;99.90
22112;DHT22;11222;50.872;4.312;2022-08-05T04:51:33;20.10;99.90
22112;DHT22;11222;50.872;4.312;2022-08-05T04:53:59;20.10;99.90
22112;DHT22;11222;50.872;4.312;2022-08-05T04:56:25;20.10;99.90
22112;DHT22;11222;50.872;4.312;2022-08-05T04:58:51;20.10;99.90
22112;DHT22;11222;50.872;4.312;2022-08-05T05:01:17;20.10;99.90
22112;DHT22;11222;50.872;4.312;2022-08-05T05:03:42;20.00;99.90
22112;DHT22;11222;50.872;4.312;2022-08-05T05:06:09;20.00;99.90
22112;DHT22;11222;50.872;4.312;2022-08-05T05:08:36;20.00;99.90
22112;DHT22;11222;50.872;4.312;2022-08-05T05:11:03;19.90;99.90
22112;DHT22;11222;50.872;4.312;2022-08-05T05:13:28;20.00;99.90
22112;DHT22;11222;50.872;4.312;2022-08-05T05:15:54;19.90;99.90
22112;DHT22;11222;50.872;4.312;2022-08-05T05:18:20;19.90;99.90
22112;DHT22;11222;50.872;4.312;2022-08-05T05:20:46;19.90;99.90
22112;DHT22;11222;50.872;4.312;2022-08-05T05:23:13;20.00;99.90
22112;DHT22;11222;50.872;4.312;2022-08-05T05:25:43;20.00;99.90
22112;DHT22;11222;50.872;4.312;2022-08-05T05:28:10;20.00;99.90
22112;DHT22;11222;50.872;4.312;2022-08-05T05:30:37;20.10;99.90
22112;DHT22;11222;50.872;4.312;2022-08-05T05:33:04;20.10;99.90
22112;DHT22;11222;50.872;4.312;2022-08-05T05:35:31;20.20;99.90
22112;DHT22;11222;50.872;4.312;2022-08-05T05:37:58;20.30;99.90
22112;DHT22;11222;50.872;4.312;2022-08-05T05:40:28;20.40;99.90
22112;DHT22;11222;50.872;4.312;2022-08-05T05:42:54;20.50;99.90
22112;DHT22;11222;50.872;4.312;2022-08-05T05:45:20;20.60;99.90
22112;DHT22;11222;50.872;4.312;2022-08-05T05:47:46;20.70;99.90
22112;DHT22;11222;50.872;4.312;2022-08-05T05:50:16;20.70;99.90
22112;DHT22;11222;50.872;4.312;2022-08-05T05:52:43;20.70;99.90
22112;DHT22;11222;50.872;4.312;2022-08-05T05:55:12;20.70;99.90
22112;DHT22;11222;50.872;4.312;2022-08-05T05:57:40;20.70;99.90
22112;DHT22;11222;50.872;4.312;2022-08-05T06:00:09;20.80;99.90
22112;DHT22;11222;50.872;4.312;2022-08-05T06:02:36;20.90;99.90
22112;DHT22;11222;50.872;4.312;2022-08-05T06:05:02;20.90;99.90
22112;DHT22;11222;50.872;4.312;2022-08-05T06:07:28;20.90;99.90
22112;DHT22;11222;50.872;4.312;2022-08-05T06:09:53;20.80;99.90
22112;DHT22;11222;50.872;4.312;2022-08-05T06:12:19;20.90;99.90
22112;DHT22;11222;50.872;4.312;2022-08-05T06:14:44;20.70;99.90
22112;DHT22;11222;50.872;4.312;2022-08-05T06:17:10;20.80;99.90
22112;DHT22;11222;50.872;4.312;2022-08-05T06:19:36;20.90;99.90
22112;DHT22;11222;50.872;4.312;2022-08-05T06:22:03;21.20;99.90
22112;DHT22;11222;50.872;4.312;2022-08-05T06:24:30;21.40;99.90
22112;DHT22;11222;50.872;4.312;2022-08-05T06:26:55;21.50;99.90
22112;DHT22;11222;50.872;4.312;2022-08-05T06:29:21;21.60;99.90
22112;DHT22;11222;50.872;4.312;2022-08-05T06:31:47;21.60;99.90
22112;DHT22;11222;50.872;4.312;2022-08-05T06:34:13;21.80;99.90
22112;DHT22;11222;50.872;4.312;2022-08-05T06:36:38;22.00;99.90
22112;DHT22;11222;50.872;4.312;2022-08-05T06:39:04;22.10;99.90
22112;DHT22;11222;50.872;4.312;2022-08-05T06:41:30;21.90;99.90
22112;DHT22;11222;50.872;4.312;2022-08-05T06:43:56;22.00;99.90
22112;DHT22;11222;50.872;4.312;2022-08-05T06:46:21;22.00;99.90
22112;DHT22;11222;50.872;4.312;2022-08-05T06:48:47;21.80;99.90
22112;DHT22;11222;50.872;4.312;2022-08-05T06:51:13;21.40;99.90
22112;DHT22;11222;50.872;4.312;2022-08-05T06:53:39;21.50;99.90
22112;DHT22;11222;50.872;4.312;2022-08-05T06:56:05;21.60;99.90
22112;DHT22;11222;50.872;4.312;2022-08-05T06:58:31;21.50;99.90
22112;DHT22;11222;50.872;4.312;2022-08-05T07:00:58;21.50;99.90
22112;DHT22;11222;50.872;4.312;2022-08-05T07:03:24;21.60;99.90
22112;DHT22;11222;50.872;4.312;2022-08-05T07:05:50;21.50;99.90
22112;DHT22;11222;50.872;4.312;2022-08-05T07:08:16;21.70;99.90
22112;DHT22;11222;50.872;4.312;2022-08-05T07:10:41;21.80;99.90
22112;DHT22;11222;50.872;4.312;2022-08-05T07:13:07;21.90;99.90
22112;DHT22;11222;50.872;4.312;2022-08-05T07:15:51;22.30;99.90
22112;DHT22;11222;50.872;4.312;2022-08-05T07:18:35;22.40;99.90
22112;DHT22;11222;50.872;4.312;2022-08-05T07:21:01;22.40;99.90
22112;DHT22;11222;50.872;4.312;2022-08-05T07:23:27;22.70;99.90
22112;DHT22;11222;50.872;4.312;2022-08-05T07:25:53;22.70;99.90
22112;DHT22;11222;50.872;4.312;2022-08-05T07:28:19;22.80;99.90
22112;DHT22;11222;50.872;4.312;2022-08-05T07:30:45;22.90;99.90
22112;DHT22;11222;50.872;4.312;2022-08-05T07:33:11;22.80;99.90
22112;DHT22;11222;50.872;4.312;2022-08-05T07:35:38;22.30;99.90
22112;DHT22;11222;50.872;4.312;2022-08-05T07:38:04;22.20;99.90
22112;DHT22;11222;50.872;4.312;2022-08-05T07:40:30;22.10;99.90
22112;DHT22;11222;50.872;4.312;2022-08-05T07:42:56;22.30;99.90
22112;DHT22;11222;50.872;4.312;2022-08-05T07:45:22;22.50;99.90
22112;DHT22;11222;50.872;4.312;2022-08-05T07:47:47;22.50;99.90
22112;DHT22;11222;50.872;4.312;2022-08-05T07:50:13;22.70;99.90
22112;DHT22;11222;50.872;4.312;2022-08-05T07:52:40;22.80;99.90
22112;DHT22;11222;50.872;4.312;2022-08-05T07:55:06;23.00;99.90
22112;DHT22;11222;50.872;4.312;2022-08-05T07:57:32;23.30;99.90
22112;DHT22;11222;50.872;4.312;2022-08-05T07:59:58;23.70;99.90
22112;DHT22;11222;50.872;4.312;2022-08-05T08:02:27;23.90;99.90
22112;DHT22;11222;50.872;4.312;2022-08-05T08:04:54;24.10;99.90
22112;DHT22;11222;50.872;4.312;2022-08-05T08:07:20;24.00;99.90
22112;DHT22;11222;50.872;4.312;2022-08-05T08:09:47;23.60;99.90
22112;DHT22;11222;50.872;4.312;2022-08-05T08:12:13;23.30;99.90
22112;DHT22;11222;50.872;4.312;2022-08-05T08:14:42;23.00;99.90
22112;DHT22;11222;50.872;4.312;2022-08-05T08:17:08;22.40;99.90
22112;DHT22;11222;50.872;4.312;2022-08-05T08:19:39;22.00;99.90
22112;DHT22;11222;50.872;4.312;2022-08-05T08:22:06;21.80;99.90
22112;DHT22;11222;50.872;4.312;2022-08-05T08:24:33;21.70;99.90
22112;DHT22;11222;50.872;4.312;2022-08-05T08:26:59;21.80;99.90
22112;DHT22;11222;50.872;4.312;2022-08-05T08:29:25;22.00;99.90
22112;DHT22;11222;50.872;4.312;2022-08-05T08:31:51;23.40;99.90
22112;DHT22;11222;50.872;4.312;2022-08-05T08:34:18;25.40;99.90
22112;DHT22;11222;50.872;4.312;2022-08-05T08:36:44;25.70;99.90
22112;DHT22;11222;50.872;4.312;2022-08-05T08:39:10;25.60;99.90
22112;DHT22;11222;50.872;4.312;2022-08-05T08:41:37;25.00;99.90
22112;DHT22;11222;50.872;4.312;2022-08-05T08:44:06;24.30;99.90
22112;DHT22;11222;50.872;4.312;2022-08-05T08:46:33;24.10;99.90
22112;DHT22;11222;50.872;4.312;2022-08-05T08:49:02;26.10;99.90
22112;DHT22;11222;50.872;4.312;2022-08-05T08:51:31;27.70;99.90
22112;DHT22;11222;50.872;4.312;2022-08-05T08:53:57;29.20;99.90
22112;DHT22;11222;50.872;4.312;2022-08-05T08:56:24;30.40;99.90
22112;DHT22;11222;50.872;4.312;2022-08-05T08:58:49;31.50;99.90
22112;DHT22;11222;50.872;4.312;2022-08-05T09:01:16;31.70;99.90
22112;DHT22;11222;50.872;4.312;2022-08-05T09:03:50;32.40;99.90
22112;DHT22;11222;50.872;4.312;2022-08-05T09:06:16;31.10;99.90
22112;DHT22;11222;50.872;4.312;2022-08-05T09:08:42;28.60;99.90
22112;DHT22;11222;50.872;4.312;2022-08-05T09:11:08;27.00;99.90
22112;DHT22;11222;50.872;4.312;2022-08-05T09:13:35;25.50;99.90
22112;DHT22;11222;50.872;4.312;2022-08-05T09:16:01;25.00;99.90
22112;DHT22;11222;50.872;4.312;2022-08-05T09:18:27;24.10;99.90
22112;DHT22;11222;50.872;4.312;2022-08-05T09:20:54;25.50;99.90
22112;DHT22;11222;50.872;4.312;2022-08-05T09:23:20;27.70;99.90
22112;DHT22;11222;50.872;4.312;2022-08-05T09:25:51;29.40;99.90
22112;DHT22;11222;50.872;4.312;2022-08-05T09:28:22;29.80;99.90
22112;DHT22;11222;50.872;4.312;2022-08-05T09:30:56;30.00;99.90
22112;DHT22;11222;50.872;4.312;2022-08-05T09:33:23;28.20;99.90
22112;DHT22;11222;50.872;4.312;2022-08-05T09:38:21;29.00;99.90
22112;DHT22;11222;50.872;4.312;2022-08-05T09:40:47;29.70;99.90
22112;DHT22;11222;50.872;4.312;2022-08-05T09:43:36;30.20;99.90
22112;DHT22;11222;50.872;4.312;2022-08-05T09:46:03;31.90;99.90
22112;DHT22;11222;50.872;4.312;2022-08-05T09:48:32;32.70;99.90
22112;DHT22;11222;50.872;4.312;2022-08-05T09:51:03;31.70;99.90
22112;DHT22;11222;50.872;4.312;2022-08-05T09:53:45;30.20;99.90
22112;DHT22;11222;50.872;4.312;2022-08-05T09:56:11;29.70;99.90
22112;DHT22;11222;50.872;4.312;2022-08-05T09:58:37;31.30;99.90
22112;DHT22;11222;50.872;4.312;2022-08-05T10:01:05;31.40;99.90
22112;DHT22;11222;50.872;4.312;2022-08-05T10:03:31;31.50;99.90
22112;DHT22;11222;50.872;4.312;2022-08-05T10:06:08;30.60;99.90
22112;DHT22;11222;50.872;4.312;2022-08-05T10:08:36;31.60;99.90
22112;DHT22;11222;50.872;4.312;2022-08-05T10:11:04;31.70;99.90
22112;DHT22;11222;50.872;4.312;2022-08-05T10:13:37;32.50;99.50
22112;DHT22;11222;50.872;4.312;2022-08-05T10:16:04;32.30;98.80
22112;DHT22;11222;50.872;4.312;2022-08-05T10:18:31;30.80;99.90
22112;DHT22;11222;50.872;4.312;2022-08-05T10:21:03;29.10;99.90
22112;DHT22;11222;50.872;4.312;2022-08-05T10:23:35;28.50;99.90
22112;DHT22;11222;50.872;4.312;2022-08-05T10:26:03;30.20;99.90
22112;DHT22;11222;50.872;4.312;2022-08-05T10:28:29;31.50;98.40
22112;DHT22;11222;50.872;4.312;2022-08-05T10:30:57;32.40;96.40
22112;DHT22;11222;50.872;4.312;2022-08-05T10:33:25;32.90;95.20
22112;DHT22;11222;50.872;4.312;2022-08-05T10:35:52;33.00;94.10
22112;DHT22;11222;50.872;4.312;2022-08-05T10:38:20;34.10;93.00
22112;DHT22;11222;50.872;4.312;2022-08-05T10:43:38;30.00;95.20
22112;DHT22;11222;50.872;4.312;2022-08-05T10:46:10;28.10;98.80
22112;DHT22;11222;50.872;4.312;2022-08-05T10:51:13;30.00;97.40
22112;DHT22;11222;50.872;4.312;2022-08-05T10:53:51;31.50;95.80
22112;DHT22;11222;50.872;4.312;2022-08-05T10:56:23;32.60;93.00
22112;DHT22;11222;50.872;4.312;2022-08-05T10:59:09;32.60;92.10
22112;DHT22;11222;50.872;4.312;2022-08-05T11:01:41;32.90;91.50
22112;DHT22;11222;50.872;4.312;2022-08-05T11:04:14;29.80;93.30
22112;DHT22;11222;50.872;4.312;2022-08-05T11:17:36;30.00;95.50
22112;DHT22;11222;50.872;4.312;2022-08-05T11:20:08;28.50;98.20
22112;DHT22;11222;50.872;4.312;2022-08-05T11:22:52;29.80;96.40
22112;DHT22;11222;50.872;4.312;2022-08-05T11:33:38;26.70;99.90
22112;DHT22;11222;50.872;4.312;2022-08-05T11:36:09;25.90;99.90
22112;DHT22;11222;50.872;4.312;2022-08-05T11:43:29;27.80;99.90
22112;DHT22;11222;50.872;4.312;2022-08-05T11:45:55;29.50;99.30
22112;DHT22;11222;50.872;4.312;2022-08-05T11:48:21;31.10;97.30
22112;DHT22;11222;50.872;4.312;2022-08-05T11:50:48;30.00;97.40
22112;DHT22;11222;50.872;4.312;2022-08-05T11:53:15;28.10;99.70
22112;DHT22;11222;50.872;4.312;2022-08-05T11:56:00;27.50;99.90
22112;DHT22;11222;50.872;4.312;2022-08-05T11:58:34;27.50;99.90
22112;DHT22;11222;50.872;4.312;2022-08-05T12:01:05;28.60;99.90
22112;DHT22;11222;50.872;4.312;2022-08-05T12:03:44;28.80;99.10
22112;DHT22;11222;50.872;4.312;2022-08-05T12:06:12;28.90;98.30
22112;DHT22;11222;50.872;4.312;2022-08-05T12:08:52;29.10;99.10
22112;DHT22;11222;50.872;4.312;2022-08-05T12:11:26;28.50;98.90
22112;DHT22;11222;50.872;4.312;2022-08-05T12:14:06;27.40;99.90
22112;DHT22;11222;50.872;4.312;2022-08-05T12:16:36;26.90;99.90
22112;DHT22;11222;50.872;4.312;2022-08-05T12:19:04;26.30;99.90
22112;DHT22;11222;50.872;4.312;2022-08-05T12:21:35;25.80;99.90
22112;DHT22;11222;50.872;4.312;2022-08-05T12:24:11;25.50;99.90
22112;DHT22;11222;50.872;4.312;2022-08-05T12:26:50;25.60;99.90
22112;DHT22;11222;50.872;4.312;2022-08-05T12:29:19;24.90;99.90
22112;DHT22;11222;50.872;4.312;2022-08-05T12:31:57;24.90;99.90
22112;DHT22;11222;50.872;4.312;2022-08-05T12:34:35;24.80;99.90
22112;DHT22;11222;50.872;4.312;2022-08-05T12:37:08;24.60;99.90
22112;DHT22;11222;50.872;4.312;2022-08-05T12:39:38;24.70;99.90
22112;DHT22;11222;50.872;4.312;2022-08-05T12:42:11;24.80;99.90
22112;DHT22;11222;50.872;4.312;2022-08-05T12:44:38;24.60;99.90
22112;DHT22;11222;50.872;4.312;2022-08-05T12:47:04;24.30;99.90
22112;DHT22;11222;50.872;4.312;2022-08-05T12:49:41;24.20;99.90
22112;DHT22;11222;50.872;4.312;2022-08-05T12:52:16;24.70;99.90
22112;DHT22;11222;50.872;4.312;2022-08-05T12:54:44;24.70;99.90
22112;DHT22;11222;50.872;4.312;2022-08-05T12:57:10;25.00;99.90
22112;DHT22;11222;50.872;4.312;2022-08-05T12:59:47;25.10;99.90
22112;DHT22;11222;50.872;4.312;2022-08-05T13:02:19;25.10;99.90
22112;DHT22;11222;50.872;4.312;2022-08-05T13:04:47;25.00;99.90
22112;DHT22;11222;50.872;4.312;2022-08-05T13:07:25;24.80;99.90
22112;DHT22;11222;50.872;4.312;2022-08-05T13:09:56;24.30;99.90
22112;DHT22;11222;50.872;4.312;2022-08-05T13:12:25;24.10;99.90
22112;DHT22;11222;50.872;4.312;2022-08-05T13:14:58;24.40;99.90
22112;DHT22;11222;50.872;4.312;2022-08-05T13:17:28;24.70;99.90
22112;DHT22;11222;50.872;4.312;2022-08-05T13:20:08;24.40;99.90
22112;DHT22;11222;50.872;4.312;2022-08-05T13:22:35;24.20;99.90
22112;DHT22;11222;50.872;4.312;2022-08-05T13:25:07;24.30;99.90
22112;DHT22;11222;50.872;4.312;2022-08-05T13:30:00;24.20;99.90
22112;DHT22;11222;50.872;4.312;2022-08-05T13:32:26;24.00;99.90
22112;DHT22;11222;50.872;4.312;2022-08-05T13:34:52;24.20;99.90
22112;DHT22;11222;50.872;4.312;2022-08-05T13:37:19;24.30;99.90
22112;DHT22;11222;50.872;4.312;2022-08-05T13:39:47;24.20;99.90
22112;DHT22;11222;50.872;4.312;2022-08-05T13:42:13;24.30;99.90
22112;DHT22;11222;50.872;4.312;2022-08-05T13:44:39;24.10;99.90
22112;DHT22;11222;50.872;4.312;2022-08-05T13:47:04;24.10;99.90
22112;DHT22;11222;50.872;4.312;2022-08-05T13:49:30;24.40;99.90
22112;DHT22;11222;50.872;4.312;2022-08-05T13:51:56;24.30;99.90
22112;DHT22;11222;50.872;4.312;2022-08-05T13:54:22;24.00;99.90
22112;DHT22;11222;50.872;4.312;2022-08-05T13:56:50;24.00;99.90
22112;DHT22;11222;50.872;4.312;2022-08-05T13:59:17;24.10;99.90
22112;DHT22;11222;50.872;4.312;2022-08-05T14:01:43;24.10;99.90
22112;DHT22;11222;50.872;4.312;2022-08-05T14:04:09;24.40;99.90
22112;DHT22;11222;50.872;4.312;2022-08-05T14:06:53;24.40;99.90
22112;DHT22;11222;50.872;4.312;2022-08-05T14:09:19;24.60;99.90
22112;DHT22;11222;50.872;4.312;2022-08-05T14:11:45;24.90;99.90
22112;DHT22;11222;50.872;4.312;2022-08-05T14:14:11;25.30;99.90
22112;DHT22;11222;50.872;4.312;2022-08-05T14:16:37;25.50;99.90
22112;DHT22;11222;50.872;4.312;2022-08-05T14:19:02;25.30;99.90
22112;DHT22;11222;50.872;4.312;2022-08-05T14:21:28;25.40;99.90
22112;DHT22;11222;50.872;4.312;2022-08-05T14:23:53;24.70;99.90
22112;DHT22;11222;50.872;4.312;2022-08-05T14:26:19;24.70;99.90
22112;DHT22;11222;50.872;4.312;2022-08-05T14:28:45;24.40;99.90
22112;DHT22;11222;50.872;4.312;2022-08-05T14:31:10;24.50;99.90
22112;DHT22;11222;50.872;4.312;2022-08-05T14:33:36;24.40;99.90
22112;DHT22;11222;50.872;4.312;2022-08-05T14:36:03;24.20;99.90
22112;DHT22;11222;50.872;4.312;2022-08-05T14:38:28;24.00;99.90
22112;DHT22;11222;50.872;4.312;2022-08-05T14:40:54;23.90;99.90
22112;DHT22;11222;50.872;4.312;2022-08-05T14:43:20;23.80;99.90
22112;DHT22;11222;50.872;4.312;2022-08-05T14:45:46;23.70;99.90
22112;DHT22;11222;50.872;4.312;2022-08-05T14:48:12;23.70;99.90
22112;DHT22;11222;50.872;4.312;2022-08-05T14:50:37;23.60;99.90
22112;DHT22;11222;50.872;4.312;2022-08-05T14:53:03;23.70;99.90
22112;DHT22;11222;50.872;4.312;2022-08-05T14:55:28;23.70;99.90
22112;DHT22;11222;50.872;4.312;2022-08-05T14:57:54;23.70;99.90
22112;DHT22;11222;50.872;4.312;2022-08-05T15:00:20;23.50;99.90
22112;DHT22;11222;50.872;4.312;2022-08-05T15:02:46;23.30;99.90
22112;DHT22;11222;50.872;4.312;2022-08-05T15:05:12;23.50;99.90
22112;DHT22;11222;50.872;4.312;2022-08-05T15:07:39;23.50;99.90
22112;DHT22;11222;50.872;4.312;2022-08-05T15:10:05;23.40;99.90
22112;DHT22;11222;50.872;4.312;2022-08-05T15:12:31;23.20;99.90
22112;DHT22;11222;50.872;4.312;2022-08-05T15:14:57;23.50;99.90
22112;DHT22;11222;50.872;4.312;2022-08-05T15:17:23;23.20;99.90
22112;DHT22;11222;50.872;4.312;2022-08-05T15:19:49;23.10;99.90
22112;DHT22;11222;50.872;4.312;2022-08-05T15:22:15;23.30;99.90
22112;DHT22;11222;50.872;4.312;2022-08-05T15:24:41;23.50;99.90
22112;DHT22;11222;50.872;4.312;2022-08-05T15:27:07;23.70;99.90
22112;DHT22;11222;50.872;4.312;2022-08-05T15:29:32;23.80;99.90
22112;DHT22;11222;50.872;4.312;2022-08-05T15:31:58;23.70;99.90
22112;DHT22;11222;50.872;4.312;2022-08-05T15:34:24;23.40;99.90
22112;DHT22;11222;50.872;4.312;2022-08-05T15:36:49;23.50;99.90
22112;DHT22;11222;50.872;4.312;2022-08-05T15:39:15;23.30;99.90
22112;DHT22;11222;50.872;4.312;2022-08-05T15:41:41;23.20;99.90
22112;DHT22;11222;50.872;4.312;2022-08-05T15:44:06;23.30;99.90
22112;DHT22;11222;50.872;4.312;2022-08-05T15:46:32;23.50;99.90
22112;DHT22;11222;50.872;4.312;2022-08-05T15:48:58;23.40;99.90
22112;DHT22;11222;50.872;4.312;2022-08-05T15:51:25;23.50;99.90
22112;DHT22;11222;50.872;4.312;2022-08-05T15:53:51;23.30;99.90
22112;DHT22;11222;50.872;4.312;2022-08-05T15:56:21;23.10;99.90
22112;DHT22;11222;50.872;4.312;2022-08-05T15:58:47;23.00;99.90
22112;DHT22;11222;50.872;4.312;2022-08-05T16:01:13;22.70;99.90
22112;DHT22;11222;50.872;4.312;2022-08-05T16:03:41;22.80;99.90
22112;DHT22;11222;50.872;4.312;2022-08-05T16:06:08;22.90;99.90
22112;DHT22;11222;50.872;4.312;2022-08-05T16:08:35;22.90;99.90
22112;DHT22;11222;50.872;4.312;2022-08-05T16:11:01;23.10;99.90